Time;durP1;ratioP1;P1;durP2;ratioP2;P2;SDS_P1;SDS_P2;PMS_P1;PMS_P2;Temp;Humidity;BMP_temperature;BMP_pressure;BME280_temperature;BME280_humidity;BME280_pressure;Samples;Min_cycle;Max_cycle;Signal;HPM_P1;HPM_P2
2022/05/13 00:00:02;;;;;;;3.03;2.22;;;16.10;99.90;;;;;;5052315;28;20305;-74
2022/05/13 00:02:27;;;;;;;5.70;2.10;;;16.10;99.90;;;;;;5071210;28;20186;-74
2022/05/13 00:04:53;;;;;;;2.80;2.38;;;16.00;99.90;;;;;;5070979;28;20203;-73
2022/05/13 00:07:19;;;;;;;5.30;1.95;;;16.00;99.90;;;;;;5070939;28;20239;-74
2022/05/13 00:09:56;;;;;;;4.05;2.20;;;15.90;99.90;;;;;;5069864;28;20207;-73
2022/05/13 00:12:24;;;;;;;4.60;2.30;;;15.90;99.90;;;;;;5052817;28;20213;-75
2022/05/13 00:14:51;;;;;;;4.15;2.00;;;15.90;99.90;;;;;;5071371;28;20178;-75
2022/05/13 00:17:17;;;;;;;3.30;1.88;;;15.80;99.90;;;;;;5053496;28;20226;-75
2022/05/13 00:19:42;;;;;;;3.45;2.22;;;15.80;99.90;;;;;;5057477;28;20237;-74
2022/05/13 00:22:08;;;;;;;2.45;2.00;;;15.80;99.90;;;;;;5053226;28;20579;-75
2022/05/13 00:24:33;;;;;;;4.57;2.42;;;15.80;99.90;;;;;;5070519;28;20310;-76
2022/05/13 00:26:58;;;;;;;3.60;2.60;;;15.70;99.90;;;;;;5071059;28;20614;-75
2022/05/13 00:29:24;;;;;;;2.95;2.22;;;15.70;99.90;;;;;;5052136;28;20218;-76
2022/05/13 00:31:49;;;;;;;3.85;2.22;;;15.70;99.90;;;;;;5070963;28;20290;-75
2022/05/13 00:34:15;;;;;;;3.38;2.13;;;15.70;99.90;;;;;;5052709;28;20668;-75
2022/05/13 00:36:40;;;;;;;7.18;2.22;;;15.70;99.90;;;;;;5072639;28;20243;-75
2022/05/13 00:39:07;;;;;;;3.22;2.10;;;15.80;99.90;;;;;;5055405;28;20218;-75
2022/05/13 00:41:34;;;;;;;3.20;2.25;;;15.70;99.90;;;;;;5074702;28;20179;-76
2022/05/13 00:44:00;;;;;;;2.47;2.20;;;15.70;99.90;;;;;;5056366;28;20203;-75
2022/05/13 00:46:28;;;;;;;2.70;2.03;;;15.60;99.90;;;;;;5074046;28;20214;-74
2022/05/13 00:48:55;;;;;;;7.20;2.58;;;15.60;99.90;;;;;;5068169;28;20276;-75
2022/05/13 00:51:28;;;;;;;3.22;2.22;;;15.60;99.90;;;;;;5067303;28;20254;-76
2022/05/13 00:53:55;;;;;;;3.35;2.80;;;15.60;99.90;;;;;;5074309;28;20171;-75
2022/05/13 00:56:22;;;;;;;3.72;2.25;;;15.50;99.90;;;;;;5074576;28;20702;-76
2022/05/13 00:58:51;;;;;;;4.25;2.60;;;15.50;99.90;;;;;;5073348;28;20199;-75
2022/05/13 01:01:17;;;;;;;7.35;2.85;;;15.40;99.90;;;;;;5073896;28;20226;-74
2022/05/13 01:03:42;;;;;;;4.80;2.60;;;15.40;99.90;;;;;;5056123;28;20687;-75
2022/05/13 01:06:13;;;;;;;3.65;2.80;;;15.40;99.90;;;;;;5055884;28;20207;-75
2022/05/13 01:08:38;;;;;;;3.30;2.75;;;15.30;99.90;;;;;;5054887;28;20684;-76
2022/05/13 01:11:10;;;;;;;3.20;2.53;;;15.30;99.90;;;;;;5074356;28;20185;-75
2022/05/13 01:13:37;;;;;;;6.65;2.70;;;15.30;99.90;;;;;;5073674;28;20245;-75
2022/05/13 01:16:02;;;;;;;6.50;2.92;;;15.30;99.90;;;;;;5073604;28;20203;-75
2022/05/13 01:18:33;;;;;;;2.42;2.22;;;15.30;99.90;;;;;;5072656;28;20215;-75
2022/05/13 01:20:59;;;;;;;4.15;2.38;;;15.30;99.90;;;;;;5043470;28;20211;-75
2022/05/13 01:23:31;;;;;;;3.05;2.60;;;15.30;99.90;;;;;;5073900;28;20178;-74
2022/05/13 01:26:09;;;;;;;3.67;2.58;;;15.30;99.90;;;;;;5055503;28;20776;-74
2022/05/13 01:28:39;;;;;;;3.80;2.58;;;15.20;99.90;;;;;;5070431;28;20238;-74
2022/05/13 01:31:08;;;;;;;3.33;2.80;;;15.20;99.90;;;;;;5067670;28;20691;-74
2022/05/13 01:33:34;;;;;;;4.10;2.50;;;15.20;99.90;;;;;;5073159;28;20222;-73
2022/05/13 01:36:03;;;;;;;4.88;2.95;;;15.20;99.90;;;;;;5073236;28;20207;-74
2022/05/13 01:38:35;;;;;;;4.70;2.70;;;15.30;99.90;;;;;;5054791;28;20706;-74
2022/05/13 01:41:02;;;;;;;5.10;2.42;;;15.30;99.90;;;;;;5055510;28;20203;-74
2022/05/13 01:43:28;;;;;;;5.78;3.47;;;15.30;99.90;;;;;;5055419;28;20210;-74
2022/05/13 01:45:55;;;;;;;6.40;2.97;;;15.20;99.90;;;;;;5072860;28;20203;-74
2022/05/13 01:48:21;;;;;;;3.88;2.95;;;15.20;99.90;;;;;;5071935;28;20641;-73
2022/05/13 01:50:47;;;;;;;2.97;2.67;;;15.20;99.90;;;;;;5060829;28;20217;-74
2022/05/13 01:53:13;;;;;;;3.53;2.90;;;15.20;99.90;;;;;;5055765;28;20171;-74
2022/05/13 01:55:42;;;;;;;4.20;2.97;;;15.20;99.90;;;;;;5072553;28;20261;-73
2022/05/13 01:58:09;;;;;;;4.45;3.20;;;15.20;99.90;;;;;;5071906;28;20214;-75
2022/05/13 02:00:35;;;;;;;3.25;2.90;;;15.10;99.90;;;;;;5072391;28;20218;-74
2022/05/13 02:05:45;;;;;;;3.85;3.28;;;15.00;99.90;;;;;;5073012;28;20720;-75
2022/05/13 02:08:10;;;;;;;5.30;3.08;;;14.90;99.90;;;;;;5054059;28;20179;-74
2022/05/13 02:10:35;;;;;;;3.70;3.08;;;14.90;99.90;;;;;;5072156;28;20210;-73
2022/05/13 02:13:02;;;;;;;7.18;3.30;;;14.90;99.90;;;;;;5072094;28;20580;-73
2022/05/13 02:15:27;;;;;;;5.38;3.70;;;14.70;99.90;;;;;;5072723;28;20203;-74
2022/05/13 02:17:53;;;;;;;4.57;3.00;;;14.70;99.90;;;;;;5072405;28;20194;-76
2022/05/13 02:20:18;;;;;;;3.95;3.28;;;14.80;99.90;;;;;;5042196;28;20232;-74
2022/05/13 02:22:44;;;;;;;4.95;3.78;;;14.80;99.90;;;;;;5072205;28;20213;-74
2022/05/13 02:25:10;;;;;;;3.92;3.53;;;14.70;99.90;;;;;;5054448;28;20583;-75
2022/05/13 02:27:36;;;;;;;6.72;3.47;;;14.80;99.90;;;;;;5071931;28;20248;-74
2022/05/13 02:30:03;;;;;;;6.72;3.78;;;14.80;99.90;;;;;;5071401;28;20592;-74
2022/05/13 02:32:28;;;;;;;4.75;3.38;;;14.70;99.90;;;;;;5072740;28;20224;-74
2022/05/13 02:34:53;;;;;;;4.25;3.30;;;14.70;99.90;;;;;;5054248;28;20207;-74
2022/05/13 02:37:19;;;;;;;4.53;3.42;;;14.70;99.90;;;;;;5070282;28;20209;-74
2022/05/13 02:39:44;;;;;;;4.68;3.63;;;14.70;99.90;;;;;;5028580;28;20207;-74
2022/05/13 02:42:10;;;;;;;5.57;3.20;;;14.70;99.90;;;;;;5052118;28;20307;-74
2022/05/13 02:44:36;;;;;;;5.93;3.97;;;14.70;99.90;;;;;;5051874;28;20176;-74
2022/05/13 02:47:01;;;;;;;6.03;3.60;;;14.60;99.90;;;;;;5052385;28;20204;-74
2022/05/13 02:49:27;;;;;;;5.35;3.83;;;14.60;99.90;;;;;;5050904;28;20670;-75
2022/05/13 02:51:52;;;;;;;6.57;3.92;;;14.50;99.90;;;;;;5034115;28;20751;-74
2022/05/13 02:54:18;;;;;;;4.80;3.83;;;14.50;99.90;;;;;;5051575;28;20203;-74
2022/05/13 02:56:43;;;;;;;4.30;3.65;;;14.50;99.90;;;;;;5051752;28;20598;-74
2022/05/13 02:59:10;;;;;;;5.15;3.95;;;14.50;99.90;;;;;;5051032;28;20207;-74
2022/05/13 03:01:36;;;;;;;8.10;4.20;;;14.40;99.90;;;;;;5051533;28;20199;-74
2022/05/13 03:04:01;;;;;;;9.98;4.47;;;14.50;99.90;;;;;;5051639;28;20200;-74
2022/05/13 03:06:27;;;;;;;4.93;4.03;;;14.30;99.90;;;;;;5041595;28;20586;-74
2022/05/13 03:08:54;;;;;;;6.70;4.03;;;14.30;99.90;;;;;;5051236;28;20219;-74
2022/05/13 03:11:23;;;;;;;5.28;3.88;;;14.30;99.90;;;;;;5048973;28;20609;-74
2022/05/13 03:13:50;;;;;;;5.55;4.72;;;14.30;99.90;;;;;;5043419;28;20253;-75
2022/05/13 03:16:19;;;;;;;5.28;3.75;;;14.20;99.90;;;;;;5051433;28;20578;-75
2022/05/13 03:18:48;;;;;;;4.05;3.53;;;14.30;99.90;;;;;;5042588;28;20223;-75
2022/05/13 03:21:13;;;;;;;8.57;4.35;;;14.30;99.90;;;;;;5033257;28;20294;-74
2022/05/13 03:23:43;;;;;;;4.47;4.05;;;14.30;99.90;;;;;;5033075;28;20803;-74
2022/05/13 03:26:10;;;;;;;4.65;4.20;;;14.30;99.90;;;;;;5051819;28;20180;-74
2022/05/13 03:28:36;;;;;;;6.97;4.90;;;14.40;99.90;;;;;;5032231;28;20242;-74
2022/05/13 03:31:01;;;;;;;6.35;5.00;;;14.40;99.90;;;;;;5033617;28;20203;-74
2022/05/13 03:33:27;;;;;;;8.20;5.40;;;14.50;99.90;;;;;;5051041;28;20213;-75
2022/05/13 03:35:52;;;;;;;5.22;4.72;;;14.60;99.90;;;;;;5051088;28;20629;-74
2022/05/13 03:38:18;;;;;;;6.40;5.03;;;14.60;99.90;;;;;;5050755;28;20296;-74
2022/05/13 03:40:46;;;;;;;5.95;4.65;;;14.50;99.90;;;;;;5048638;28;20561;-74
2022/05/13 03:43:12;;;;;;;6.13;4.70;;;14.40;99.90;;;;;;5041643;28;20206;-74
2022/05/13 03:45:37;;;;;;;6.88;4.55;;;14.50;99.90;;;;;;5059332;28;20211;-74
2022/05/13 03:48:05;;;;;;;5.63;4.05;;;14.60;99.90;;;;;;5058609;28;20635;-75
2022/05/13 03:50:32;;;;;;;6.25;5.18;;;14.80;99.90;;;;;;5033495;28;20195;-74
2022/05/13 03:52:58;;;;;;;8.98;5.47;;;14.80;99.90;;;;;;5033656;28;20210;-74
2022/05/13 03:55:24;;;;;;;15.95;9.90;;;15.60;99.90;;;;;;5033134;28;20294;-74
2022/05/13 03:57:49;;;;;;;9.73;7.40;;;16.80;99.90;;;;;;5050798;28;20350;-73
2022/05/13 04:00:15;;;;;;;14.90;9.30;;;17.80;99.90;;;;;;5050664;28;20261;-73
2022/05/13 04:02:41;;;;;;;7.07;4.97;;;18.70;99.90;;;;;;5059092;28;20183;-74
2022/05/13 04:10:36;;;;;;;6.85;4.03;;;20.70;99.90;;;;;;5050808;28;20222;-74
2022/05/13 04:16:06;;;;;;;5.90;4.25;;;22.10;99.90;;;;;;5045577;28;20212;-74
2022/05/13 04:18:37;;;;;;;6.15;3.60;;;22.40;99.90;;;;;;5053478;28;20254;-75
2022/05/13 04:21:07;;;;;;;5.00;4.25;;;22.40;99.90;;;;;;5036557;28;20219;-74
2022/05/13 04:23:39;;;;;;;6.30;3.45;;;22.80;99.90;;;;;;5037342;28;20176;-74
2022/05/13 04:26:05;;;;;;;4.97;3.78;;;22.90;99.90;;;;;;5055196;28;20286;-74
2022/05/13 04:28:30;;;;;;;4.10;3.55;;;22.90;99.90;;;;;;5053376;28;20258;-74
2022/05/13 04:30:58;;;;;;;6.75;3.97;;;22.50;99.90;;;;;;5054577;28;20759;-74
2022/05/13 04:33:24;;;;;;;6.28;4.45;;;21.40;99.90;;;;;;5054098;28;20210;-74
2022/05/13 04:35:49;;;;;;;5.07;3.45;;;21.20;99.90;;;;;;5054626;28;20210;-74
2022/05/13 04:38:15;;;;;;;6.82;3.70;;;22.90;99.90;;;;;;5036082;28;20298;-74
2022/05/13 04:40:40;;;;;;;5.53;3.67;;;23.80;99.90;;;;;;5054435;28;20297;-74
2022/05/13 04:43:06;;;;;;;5.05;3.58;;;24.30;99.90;;;;;;5036450;28;20287;-73
2022/05/13 04:45:32;;;;;;;6.53;3.60;;;24.60;99.90;;;;;;5053988;28;20218;-74
2022/05/13 04:48:26;;;;;;;4.78;3.10;;;25.10;99.90;;;;;;5052771;28;20253;-75
2022/05/13 04:50:58;;;;;;;5.90;3.20;;;26.20;99.90;;;;;;5074258;28;20520;-75
2022/05/13 04:53:27;;;;;;;4.45;3.50;;;26.90;99.90;;;;;;5074594;28;20167;-74
2022/05/13 04:55:53;;;;;;;4.80;3.50;;;26.90;99.90;;;;;;5074526;28;20203;-74
2022/05/13 04:58:20;;;;;;;3.70;2.90;;;26.80;99.90;;;;;;5072957;28;20222;-74
2022/05/13 05:00:47;;;;;;;6.32;3.35;;;26.60;99.30;;;;;;5055952;28;20582;-74
2022/05/13 05:03:13;;;;;;;4.07;3.03;;;26.80;99.50;;;;;;5074116;28;20214;-75
2022/05/13 05:05:39;;;;;;;4.70;3.30;;;27.40;99.00;;;;;;5073820;28;20194;-75
2022/05/13 05:08:05;;;;;;;7.97;4.03;;;28.00;97.40;;;;;;5073837;28;20172;-74
2022/05/13 05:10:31;;;;;;;6.13;3.35;;;27.40;96.50;;;;;;5073642;28;20229;-74
2022/05/13 05:12:57;;;;;;;5.65;3.65;;;28.00;96.50;;;;;;5073787;28;20290;-74
2022/05/13 05:15:25;;;;;;;6.30;3.20;;;28.20;95.30;;;;;;5073426;28;20264;-74
2022/05/13 05:17:50;;;;;;;6.20;3.55;;;26.80;95.70;;;;;;5066717;28;20203;-75
2022/05/13 05:20:17;;;;;;;4.00;3.05;;;28.30;95.00;;;;;;5055843;28;20260;-75
2022/05/13 05:22:46;;;;;;;6.93;3.30;;;28.90;93.80;;;;;;5054649;28;20195;-74
2022/05/13 05:25:14;;;;;;;5.10;3.08;;;28.40;93.30;;;;;;5073758;28;20199;-75
2022/05/13 05:27:41;;;;;;;5.03;3.17;;;28.40;93.80;;;;;;5073137;28;20235;-74
2022/05/13 05:30:09;;;;;;;5.32;3.20;;;28.70;92.70;;;;;;5137911;23;20231;-76
2022/05/13 05:32:40;;;;;;;5.68;3.38;;;28.60;92.40;;;;;;5148332;27;20172;-76
2022/05/13 05:35:08;;;;;;;4.45;3.33;;;28.30;91.60;;;;;;5171147;27;20219;-76
2022/05/13 05:37:34;;;;;;;5.75;3.45;;;28.80;92.00;;;;;;5156064;27;20212;-76
2022/05/13 05:40:00;;;;;;;6.60;3.50;;;29.10;90.70;;;;;;5145446;27;20613;-76
2022/05/13 05:42:26;;;;;;;3.75;2.90;;;28.10;90.90;;;;;;5164401;27;20203;-77
2022/05/13 05:44:52;;;;;;;5.13;3.13;;;28.30;91.30;;;;;;5137401;27;20161;-76
2022/05/13 05:47:21;;;;;;;7.22;3.72;;;27.70;91.30;;;;;;5138254;27;20213;-77
2022/05/13 05:49:47;;;;;;;3.47;2.75;;;27.80;90.90;;;;;;5136424;27;20603;-79
2022/05/13 05:52:13;;;;;;;5.50;3.22;;;28.40;91.00;;;;;;5163669;27;20223;-76
2022/05/13 05:57:23;;;;;;;5.53;3.15;;;30.20;87.40;;;;;;5176096;27;20218;-77
2022/05/13 05:59:49;;;;;;;3.80;2.70;;;29.90;87.20;;;;;;5157026;27;20196;-76
2022/05/13 06:02:15;;;;;;;4.57;3.35;;;31.20;83.90;;;;;;5157910;27;20167;-78
2022/05/13 06:04:41;;;;;;;18.15;5.60;;;30.30;83.40;;;;;;5156821;27;20287;-76
2022/05/13 06:07:09;;;;;;;4.20;3.35;;;29.60;83.90;;;;;;5175895;27;20203;-76
2022/05/13 06:09:36;;;;;;;6.72;3.60;;;30.50;82.70;;;;;;5156465;27;20234;-76
2022/05/13 06:12:03;;;;;;;7.75;4.15;;;30.60;82.00;;;;;;5157548;27;20585;-76
2022/05/13 06:14:29;;;;;;;6.07;3.60;;;31.10;80.70;;;;;;5139444;27;20180;-77
2022/05/13 06:16:54;;;;;;;4.20;3.55;;;31.00;79.90;;;;;;5150119;27;20566;-76
2022/05/13 06:19:20;;;;;;;3.92;3.15;;;30.50;80.70;;;;;;5151055;27;20199;-78
2022/05/13 06:21:46;;;;;;;6.05;3.88;;;29.70;82.20;;;;;;5150337;27;20222;-78
2022/05/13 06:24:12;;;;;;;7.13;3.72;;;30.40;81.60;;;;;;5149710;27;20282;-78
2022/05/13 06:26:38;;;;;;;6.03;3.70;;;30.70;80.80;;;;;;5137872;27;20211;-78
2022/05/13 06:29:05;;;;;;;6.97;3.35;;;30.70;79.90;;;;;;5141928;27;20214;-77
2022/05/13 06:31:30;;;;;;;6.43;3.30;;;30.60;79.80;;;;;;5155578;27;20204;-78
2022/05/13 06:33:56;;;;;;;5.28;4.00;;;30.10;80.10;;;;;;5139248;27;20214;-76
2022/05/13 06:36:22;;;;;;;5.70;3.95;;;30.30;79.80;;;;;;5155422;27;20850;-76
2022/05/13 06:38:47;;;;;;;6.95;3.90;;;30.00;79.90;;;;;;5145736;27;20284;-78
2022/05/13 06:41:13;;;;;;;5.55;3.72;;;30.00;80.00;;;;;;5131334;27;20211;-76
2022/05/13 06:43:39;;;;;;;6.45;3.97;;;30.20;79.70;;;;;;5135065;27;20270;-76
2022/05/13 06:46:05;;;;;;;5.97;4.53;;;31.10;78.10;;;;;;5132065;27;20207;-77
2022/05/13 06:48:30;;;;;;;5.97;3.67;;;30.90;77.60;;;;;;5139182;27;20196;-76
2022/05/13 06:50:56;;;;;;;5.82;3.95;;;31.20;77.50;;;;;;5145860;27;20214;-77
2022/05/13 06:53:22;;;;;;;4.15;3.85;;;31.90;76.50;;;;;;5136331;27;20303;-75
2022/05/13 06:55:49;;;;;;;5.63;4.00;;;31.50;75.30;;;;;;5155728;27;20202;-79
2022/05/13 06:58:15;;;;;;;6.20;4.10;;;30.10;76.90;;;;;;5169815;27;20225;-76
2022/05/13 07:00:43;;;;;;;7.47;4.55;;;29.30;79.00;;;;;;5132391;27;20304;-76
2022/05/13 07:03:14;;;;;;;8.27;4.15;;;29.10;79.70;;;;;;5133826;27;20212;-76
2022/05/13 07:05:39;;;;;;;6.70;4.85;;;28.30;80.90;;;;;;5152272;27;20195;-76
2022/05/13 07:08:05;;;;;;;6.57;4.70;;;27.60;82.80;;;;;;5133742;27;20168;-78
2022/05/13 07:10:31;;;;;;;7.05;4.38;;;26.90;84.40;;;;;;5141744;27;20212;-78
2022/05/13 07:12:57;;;;;;;7.47;4.65;;;26.80;85.20;;;;;;5142475;27;20300;-78
2022/05/13 07:15:22;;;;;;;8.00;4.78;;;27.00;84.80;;;;;;5128127;27;20207;-72
2022/05/13 07:17:48;;;;;;;6.97;4.95;;;27.50;85.10;;;;;;5132225;27;20192;-74
2022/05/13 07:20:15;;;;;;;11.77;5.72;;;27.90;85.00;;;;;;5127167;27;20193;-73
2022/05/13 07:22:40;;;;;;;5.15;4.45;;;28.30;83.60;;;;;;5137762;27;20571;-80
2022/05/13 07:25:07;;;;;;;8.75;4.78;;;27.90;83.20;;;;;;5124624;27;20211;-74
2022/05/13 07:27:33;;;;;;;9.18;6.13;;;27.30;84.30;;;;;;5144439;27;20687;-73
2022/05/13 07:29:58;;;;;;;9.48;4.78;;;25.80;86.90;;;;;;5160488;27;20298;-73
2022/05/13 07:32:24;;;;;;;9.40;5.65;;;24.60;90.70;;;;;;5161945;27;20163;-74
2022/05/13 07:34:49;;;;;;;6.72;5.55;;;24.00;92.20;;;;;;5172839;27;20200;-72
2022/05/13 07:37:15;;;;;;;9.63;6.10;;;23.50;92.70;;;;;;5173195;27;20204;-73
2022/05/13 07:42:25;;;;;;;10.30;6.43;;;22.10;95.90;;;;;;5159980;27;20214;-73
2022/05/13 07:44:51;;;;;;;6.90;5.30;;;21.90;97.30;;;;;;5132548;27;20276;-75
2022/05/13 07:47:18;;;;;;;10.32;6.50;;;21.70;97.30;;;;;;5138886;27;20293;-74
2022/05/13 07:49:44;;;;;;;8.63;6.30;;;21.40;98.40;;;;;;5149011;27;20210;-75
2022/05/13 07:52:10;;;;;;;8.18;6.07;;;21.40;99.00;;;;;;5159321;27;20195;-72
2022/05/13 07:54:36;;;;;;;10.63;6.70;;;21.40;99.40;;;;;;5177257;27;20227;-71
2022/05/13 07:57:03;;;;;;;8.07;6.82;;;21.40;99.90;;;;;;5177349;27;20733;-72
2022/05/13 07:59:32;;;;;;;8.90;6.38;;;21.10;99.90;;;;;;5158022;27;20195;-72
2022/05/13 08:01:58;;;;;;;9.63;6.30;;;21.00;99.90;;;;;;5158697;27;20227;-72
2022/05/13 08:04:24;;;;;;;7.47;6.60;;;21.10;99.90;;;;;;5177083;27;20200;-71
2022/05/13 08:06:50;;;;;;;8.85;6.28;;;21.30;99.90;;;;;;5158564;27;20199;-71
2022/05/13 08:09:16;;;;;;;10.38;6.97;;;21.40;99.90;;;;;;5165007;27;20215;-72
2022/05/13 08:11:43;;;;;;;8.25;6.28;;;21.00;99.90;;;;;;5136842;27;20172;-73
2022/05/13 08:14:10;;;;;;;9.57;6.05;;;20.50;99.90;;;;;;5176305;27;20174;-75
2022/05/13 08:16:36;;;;;;;13.35;7.63;;;20.10;99.90;;;;;;5175078;27;20204;-72
2022/05/13 08:19:04;;;;;;;11.02;7.13;;;19.70;99.90;;;;;;5164038;27;20204;-74
2022/05/13 08:21:30;;;;;;;12.02;7.45;;;19.60;99.90;;;;;;5176130;27;20203;-74
2022/05/13 08:23:56;;;;;;;8.77;7.05;;;19.50;99.90;;;;;;5156039;27;20207;-76
2022/05/13 08:26:22;;;;;;;8.45;7.28;;;19.50;99.90;;;;;;5137867;27;20172;-74
2022/05/13 08:28:47;;;;;;;12.23;7.25;;;19.40;99.90;;;;;;5136014;27;20275;-73
2022/05/13 08:31:15;;;;;;;11.13;6.85;;;19.20;99.90;;;;;;5137252;27;20199;-75
2022/05/13 08:33:42;;;;;;;9.18;7.13;;;19.00;99.90;;;;;;5137436;27;20235;-75
2022/05/13 08:36:08;;;;;;;11.13;7.60;;;18.90;99.90;;;;;;5137020;27;20262;-74
2022/05/13 08:38:37;;;;;;;8.48;6.90;;;18.90;99.90;;;;;;5137305;27;20652;-75
2022/05/13 08:41:17;;;;;;;9.52;7.50;;;18.90;99.90;;;;;;5156134;27;20196;-73
2022/05/13 08:43:47;;;;;;;12.35;8.20;;;18.70;99.90;;;;;;5137134;27;20294;-76
2022/05/13 08:46:16;;;;;;;9.48;7.57;;;18.60;99.90;;;;;;5137939;27;20619;-74
2022/05/13 08:48:46;;;;;;;12.50;7.57;;;18.50;99.90;;;;;;5136360;27;20212;-74
2022/05/13 08:51:37;;;;;;;13.05;7.72;;;18.50;99.90;;;;;;5138020;27;20200;-75
2022/05/13 08:54:21;;;;;;;8.63;7.40;;;18.60;99.90;;;;;;5154931;27;20220;-74
2022/05/13 08:56:54;;;;;;;13.15;7.40;;;18.50;99.90;;;;;;5153964;27;20663;-76
2022/05/13 08:59:38;;;;;;;9.95;7.57;;;18.80;99.90;;;;;;5136410;27;20189;-75
2022/05/13 09:02:19;;;;;;;7.82;6.93;;;19.00;99.90;;;;;;5138642;27;20203;-75
2022/05/13 09:04:54;;;;;;;12.63;7.47;;;19.50;99.90;;;;;;5158165;27;20199;-74
2022/05/13 09:07:20;;;;;;;14.23;7.85;;;20.00;99.90;;;;;;5156841;27;20199;-74
2022/05/13 09:09:52;;;;;;;10.63;8.65;;;20.40;99.90;;;;;;5157407;27;20203;-77
2022/05/13 09:12:24;;;;;;;13.57;7.82;;;20.80;99.90;;;;;;5159243;27;20297;-75
2022/05/13 09:15:05;;;;;;;10.25;7.30;;;21.00;99.90;;;;;;5136389;27;20176;-76
2022/05/13 09:17:35;;;;;;;15.25;6.90;;;21.50;99.90;;;;;;5136893;27;20295;-76
2022/05/13 09:20:04;;;;;;;11.52;5.68;;;21.80;99.90;;;;;;5150059;27;20208;-75
2022/05/13 09:22:38;;;;;;;9.00;5.50;;;21.10;99.90;;;;;;5154468;27;20211;-77
2022/05/13 09:25:05;;;;;;;9.18;5.28;;;20.30;99.90;;;;;;5135931;27;20239;-77
2022/05/13 09:27:46;;;;;;;9.32;4.85;;;20.00;99.90;;;;;;5164144;27;20864;-77
2022/05/13 09:30:16;;;;;;;13.95;7.32;;;20.40;99.90;;;;;;5156024;27;20695;-76
2022/05/13 09:32:42;;;;;;;9.80;5.85;;;20.80;99.90;;;;;;5156298;27;20172;-75
2022/05/13 09:35:36;;;;;;;8.43;4.20;;;21.40;99.90;;;;;;5176004;27;20171;-76
2022/05/13 09:38:47;;;;;;;8.00;3.45;;;22.10;99.90;;;;;;5156552;27;20771;-78
2022/05/13 09:41:22;;;;;;;5.88;3.60;;;21.80;99.90;;;;;;5171823;27;20580;-78
2022/05/13 09:43:54;;;;;;;7.13;3.65;;;22.20;99.90;;;;;;5158698;27;20199;-77
2022/05/13 09:46:35;;;;;;;7.53;3.58;;;22.20;99.90;;;;;;5157317;27;20291;-76
2022/05/13 09:49:28;;;;;;;6.25;3.38;;;22.20;99.90;;;;;;5146717;27;20209;-77
2022/05/13 09:52:11;;;;;;;7.88;3.83;;;22.30;99.90;;;;;;5149677;27;20200;-77
2022/05/13 09:54:47;;;;;;;6.85;4.15;;;22.10;99.90;;;;;;5129014;27;20215;-77
2022/05/13 09:57:30;;;;;;;7.35;4.07;;;22.20;99.90;;;;;;5144491;27;20307;-77
2022/05/13 10:00:07;;;;;;;6.18;2.90;;;22.10;99.90;;;;;;5128993;27;20704;-77
2022/05/13 10:02:38;;;;;;;9.38;3.47;;;22.30;99.90;;;;;;5173071;27;20263;-77
2022/05/13 10:05:23;;;;;;;6.28;3.30;;;22.30;99.90;;;;;;5155534;27;20668;-77
2022/05/13 10:07:51;;;;;;;6.82;3.60;;;22.10;99.90;;;;;;5153325;27;20295;-76
2022/05/13 10:16:28;;;;;;;10.38;3.20;;;23.00;99.90;;;;;;5153847;27;20253;-76
2022/05/13 10:19:11;;;;;;;6.43;3.55;;;23.10;99.90;;;;;;5134541;27;20200;-78
2022/05/13 10:21:57;;;;;;;7.43;3.80;;;23.30;99.90;;;;;;5164261;27;20308;-77
2022/05/13 10:24:52;;;;;;;8.30;4.13;;;22.80;99.90;;;;;;5174317;27;20676;-78
2022/05/13 10:27:39;;;;;;;7.57;4.28;;;22.00;99.90;;;;;;5155947;27;20630;-77
2022/05/13 10:30:10;;;;;;;6.88;4.25;;;21.50;99.90;;;;;;5154780;27;20218;-76
2022/05/13 10:32:44;;;;;;;7.72;3.75;;;20.80;99.90;;;;;;5174363;27;20648;-78
2022/05/13 10:35:17;;;;;;;9.98;3.72;;;20.60;99.90;;;;;;5152219;27;20744;-78
2022/05/13 10:37:48;;;;;;;7.50;3.25;;;20.30;99.90;;;;;;5164391;27;20569;-79
2022/05/13 10:40:17;;;;;;;6.68;3.47;;;19.90;99.90;;;;;;5154241;27;20195;-78
2022/05/13 10:42:54;;;;;;;16.63;4.20;;;19.60;99.90;;;;;;5153206;27;20196;-77
2022/05/13 10:45:24;;;;;;;6.00;3.53;;;19.80;99.90;;;;;;5154230;27;20217;-75
2022/05/13 10:47:55;;;;;;;5.30;3.20;;;19.60;99.90;;;;;;5131773;27;20259;-75
2022/05/13 10:50:25;;;;;;;8.63;3.47;;;19.80;99.90;;;;;;5161898;27;20199;-75
2022/05/13 10:53:01;;;;;;;4.95;2.90;;;20.00;99.90;;;;;;5169821;27;20381;-76
2022/05/13 10:55:36;;;;;;;7.05;2.90;;;20.50;99.90;;;;;;5154151;27;20200;-78
2022/05/13 10:58:23;;;;;;;10.60;3.00;;;21.00;99.90;;;;;;5158593;27;20210;-75
2022/05/13 11:01:03;;;;;;;7.82;2.63;;;21.40;99.90;;;;;;5163945;27;20586;-77
2022/05/13 11:03:41;;;;;;;4.45;2.40;;;21.70;99.90;;;;;;5153972;27;20238;-76
2022/05/13 11:06:25;;;;;;;4.90;2.67;;;21.30;99.90;;;;;;5168062;27;20226;-76
2022/05/13 11:08:56;;;;;;;17.35;6.15;;;21.10;99.90;;;;;;5160880;27;20621;-75
2022/05/13 11:11:35;;;;;;;18.33;5.40;;;21.20;99.90;;;;;;5170577;27;20163;-74
2022/05/13 11:14:34;;;;;;;7.55;2.20;;;21.00;99.90;;;;;;5174096;27;20191;-77
2022/05/13 11:16:59;;;;;;;6.03;2.72;;;20.70;99.90;;;;;;5160937;27;20308;-76
2022/05/13 11:19:37;;;;;;;5.38;2.42;;;20.80;99.90;;;;;;5160691;27;20636;-76
2022/05/13 11:22:18;;;;;;;4.30;2.30;;;21.50;99.90;;;;;;5156667;27;20687;-78
2022/05/13 11:28:08;;;;;;;6.70;2.63;;;21.60;99.80;;;;;;5137044;27;20214;-73
2022/05/13 11:30:48;;;;;;;4.70;2.55;;;21.00;99.50;;;;;;5163587;22;20300;-70
2022/05/13 11:33:35;;;;;;;6.50;2.58;;;20.70;99.80;;;;;;5148271;27;20211;-71
2022/05/13 11:36:13;;;;;;;4.50;2.22;;;20.80;99.90;;;;;;5148920;27;20208;-69
2022/05/13 11:39:04;;;;;;;4.85;2.67;;;20.70;99.90;;;;;;5132739;27;20321;-70
2022/05/13 11:41:55;;;;;;;7.10;2.55;;;20.70;99.90;;;;;;5152994;27;20219;-70
2022/05/13 11:44:33;;;;;;;8.55;2.58;;;20.70;99.90;;;;;;5152285;27;20203;-70
2022/05/13 11:47:05;;;;;;;5.93;2.67;;;20.80;99.90;;;;;;5152161;27;20232;-70
2022/05/13 11:49:33;;;;;;;5.25;2.58;;;20.70;99.90;;;;;;5131179;27;20200;-70
2022/05/13 11:52:34;;;;;;;4.65;2.78;;;20.90;99.90;;;;;;5131664;27;20209;-69
2022/05/13 11:55:19;;;;;;;9.77;2.47;;;20.90;99.90;;;;;;5107987;28;20212;-70
2022/05/13 11:57:48;;;;;;;5.72;2.65;;;21.10;99.90;;;;;;5130943;27;20640;-71
2022/05/13 12:00:19;;;;;;;6.82;2.80;;;21.00;99.90;;;;;;5138627;27;20718;-71
2022/05/13 12:02:45;;;;;;;7.18;2.38;;;21.10;99.90;;;;;;5133176;27;20176;-71
2022/05/13 12:05:32;;;;;;;6.43;2.63;;;21.10;99.60;;;;;;5134015;27;20267;-70
2022/05/13 12:08:14;;;;;;;8.23;2.75;;;20.70;99.60;;;;;;5133300;27;20680;-70
2022/05/13 12:10:55;;;;;;;7.10;2.95;;;20.30;99.90;;;;;;5122145;27;20239;-71
2022/05/13 12:13:29;;;;;;;8.65;2.83;;;20.40;99.90;;;;;;5112790;28;20249;-69
2022/05/13 12:16:21;;;;;;;6.63;3.25;;;20.50;99.90;;;;;;5105873;28;20294;-69
2022/05/13 12:19:08;;;;;;;6.18;2.63;;;20.70;99.90;;;;;;5130827;27;20213;-71
2022/05/13 12:21:43;;;;;;;4.40;2.53;;;21.10;99.90;;;;;;5131068;27;20216;-71
2022/05/13 12:24:12;;;;;;;6.95;2.67;;;20.60;99.90;;;;;;5131196;27;20212;-70
2022/05/13 12:26:54;;;;;;;5.28;2.67;;;20.40;99.90;;;;;;5131032;27;20361;-70
2022/05/13 12:29:32;;;;;;;7.90;2.28;;;20.50;99.90;;;;;;5115994;28;20161;-71
2022/05/13 12:31:57;;;;;;;5.43;2.38;;;20.70;99.90;;;;;;5108549;27;20219;-72
2022/05/13 12:40:12;;;;;;;5.38;2.65;;;20.70;99.90;;;;;;5138565;27;20638;-70
2022/05/13 12:43:15;;;;;;;7.05;2.40;;;20.30;99.90;;;;;;5155320;27;20212;-70
2022/05/13 12:45:58;;;;;;;7.00;2.33;;;20.30;99.90;;;;;;5152384;27;20231;-72
2022/05/13 12:48:23;;;;;;;5.20;2.20;;;20.40;99.90;;;;;;5143014;27;20192;-72
2022/05/13 12:50:56;;;;;;;7.20;3.88;;;20.20;99.30;;;;;;5136582;27;20192;-70
2022/05/13 12:53:28;;;;;;;6.35;3.50;;;20.10;99.90;;;;;;5138085;27;20573;-72
2022/05/13 12:56:18;;;;;;;8.13;2.70;;;20.10;99.90;;;;;;5145710;27;20196;-70
2022/05/13 12:58:52;;;;;;;5.55;2.38;;;19.90;99.90;;;;;;5154480;27;20666;-70
2022/05/13 13:01:17;;;;;;;6.93;2.53;;;19.60;99.90;;;;;;5119865;27;20263;-70
2022/05/13 13:03:46;;;;;;;4.88;2.40;;;19.40;99.90;;;;;;5137698;27;20200;-72
2022/05/13 13:06:16;;;;;;;6.93;2.22;;;19.20;99.90;;;;;;5136478;27;20784;-71
2022/05/13 13:08:44;;;;;;;6.03;2.70;;;19.00;99.90;;;;;;5154830;27;20712;-72
2022/05/13 13:11:30;;;;;;;5.72;2.53;;;19.00;99.90;;;;;;5139793;27;20197;-75
2022/05/13 13:14:10;;;;;;;8.32;2.70;;;18.90;99.90;;;;;;5118529;27;21770;-72
2022/05/13 13:16:57;;;;;;;5.53;2.53;;;18.70;99.90;;;;;;5132400;27;20288;-72
2022/05/13 13:19:28;;;;;;;10.15;3.92;;;18.70;99.90;;;;;;5120754;27;20203;-73
2022/05/13 13:21:59;;;;;;;8.73;2.60;;;18.60;99.90;;;;;;5136300;27;20199;-73
2022/05/13 13:24:29;;;;;;;8.32;4.95;;;18.50;99.90;;;;;;5136205;27;20845;-73
2022/05/13 13:26:57;;;;;;;10.57;3.50;;;18.70;99.90;;;;;;5133999;27;20593;-72
2022/05/13 13:29:30;;;;;;;7.28;2.92;;;18.80;99.90;;;;;;5122949;27;20177;-75
2022/05/13 13:32:01;;;;;;;8.23;3.28;;;19.00;99.90;;;;;;5134102;27;20757;-75